Time;durP1;ratioP1;P1;durP2;ratioP2;P2;SDS_P1;SDS_P2;PMS_P1;PMS_P2;Temp;Humidity;BMP_temperature;BMP_pressure;BME280_temperature;BME280_humidity;BME280_pressure;Samples;Min_cycle;Max_cycle;Signal;HPM_P1;HPM_P2
2021/12/05 00:18:20;;;;;;;1.40;1.10;;;22.20;47.80;;;;;;5075161;28;20219;-67
2021/12/05 00:23:30;;;;;;;0.70;0.70;;;22.10;47.50;;;;;;5075222;28;20177;-67
2021/12/05 00:26:00;;;;;;;0.68;0.68;;;22.20;47.70;;;;;;5075166;28;20180;-67
2021/12/05 01:08:53;;;;;;;1.10;0.77;;;22.10;47.50;;;;;;5074641;28;20264;-67
2021/12/05 01:16:45;;;;;;;0.70;0.60;;;22.10;47.30;;;;;;5074282;28;20221;-67
2021/12/05 01:19:17;;;;;;;0.85;0.70;;;22.10;47.30;;;;;;5091064;28;20165;-67
2021/12/05 01:21:48;;;;;;;1.33;0.73;;;22.10;47.30;;;;;;5091169;28;20173;-67
2021/12/05 01:24:42;;;;;;;0.57;0.57;;;22.10;47.40;;;;;;5074457;28;20694;-67
2021/12/05 01:27:18;;;;;;;1.85;0.80;;;22.10;47.50;;;;;;5091070;28;20604;-67
2021/12/05 01:30:09;;;;;;;0.65;0.60;;;22.10;47.50;;;;;;5090869;28;20168;-67
2021/12/05 01:35:40;;;;;;;0.50;0.50;;;22.10;47.40;;;;;;5074111;28;20181;-66
2021/12/05 01:41:05;;;;;;;0.50;0.50;;;22.10;47.30;;;;;;5074187;28;20173;-67
2021/12/05 01:44:24;;;;;;;0.80;0.77;;;22.10;47.50;;;;;;5074227;28;20172;-67
2021/12/05 01:51:50;;;;;;;1.00;1.00;;;22.10;47.30;;;;;;5074313;28;20188;-66
2021/12/05 01:54:37;;;;;;;1.38;0.80;;;22.10;47.30;;;;;;5073759;28;20206;-67
2021/12/05 01:57:28;;;;;;;1.50;0.73;;;22.00;47.20;;;;;;5073725;28;20225;-67
2021/12/05 02:11:19;;;;;;;1.25;0.90;;;22.10;47.30;;;;;;5073953;28;20604;-67
2021/12/05 02:38:45;;;;;;;0.80;0.80;;;22.10;47.30;;;;;;5077154;28;20201;-66
2021/12/05 02:43:33;;;;;;;1.02;0.93;;;22.10;47.10;;;;;;5077042;28;20261;-67
2021/12/05 02:46:03;;;;;;;0.93;0.90;;;22.10;47.20;;;;;;5060523;28;20173;-67
2021/12/05 02:48:34;;;;;;;1.33;0.90;;;22.10;47.20;;;;;;5076968;28;20200;-67
2021/12/05 02:51:10;;;;;;;1.15;0.90;;;22.10;47.30;;;;;;5076990;28;20169;-67
2021/12/05 02:53:50;;;;;;;1.70;0.95;;;22.10;47.30;;;;;;5076882;28;20169;-67
2021/12/05 02:56:19;;;;;;;1.52;0.88;;;22.10;47.30;;;;;;5076572;28;20204;-67
2021/12/05 02:58:52;;;;;;;1.15;1.00;;;22.10;47.30;;;;;;5076502;28;20209;-66
2021/12/05 03:01:39;;;;;;;1.45;1.00;;;22.10;47.30;;;;;;5093613;28;20161;-67
2021/12/05 03:04:06;;;;;;;0.90;0.70;;;22.10;47.20;;;;;;5059984;28;20165;-67
2021/12/05 03:06:33;;;;;;;1.33;0.82;;;22.10;47.20;;;;;;5094519;28;20197;-67
2021/12/05 03:09:14;;;;;;;0.80;0.60;;;22.10;47.00;;;;;;5076546;28;20245;-66
2021/12/05 03:11:43;;;;;;;1.45;0.95;;;22.10;47.10;;;;;;5076954;28;20180;-67
2021/12/05 03:14:09;;;;;;;1.42;1.00;;;22.10;47.20;;;;;;5059759;28;20674;-67
2021/12/05 03:16:38;;;;;;;1.50;1.17;;;22.00;47.10;;;;;;5093189;28;20248;-67
2021/12/05 03:19:07;;;;;;;1.25;0.70;;;22.10;47.20;;;;;;5076420;28;20189;-67
2021/12/05 03:21:36;;;;;;;0.75;0.70;;;22.10;47.30;;;;;;5076732;28;20656;-67
2021/12/05 03:24:04;;;;;;;1.10;1.00;;;22.00;47.10;;;;;;5075567;28;20204;-68
2021/12/05 03:26:36;;;;;;;1.42;0.80;;;22.10;47.20;;;;;;5054926;28;20297;-67
2021/12/05 03:29:07;;;;;;;1.33;0.80;;;22.10;47.20;;;;;;5081148;28;20204;-67
2021/12/05 03:31:35;;;;;;;2.33;0.90;;;22.10;47.20;;;;;;5056074;28;20181;-67
2021/12/05 03:34:05;;;;;;;1.10;1.00;;;22.10;47.20;;;;;;5056208;28;20181;-68
2021/12/05 03:36:34;;;;;;;1.33;1.05;;;22.10;47.10;;;;;;5055806;28;20313;-67
2021/12/05 03:39:03;;;;;;;1.55;0.90;;;22.10;47.10;;;;;;5055626;28;20709;-67
2021/12/05 03:41:30;;;;;;;1.38;1.10;;;22.10;47.00;;;;;;5055951;28;20170;-67
2021/12/05 03:43:57;;;;;;;1.70;0.77;;;22.00;46.90;;;;;;5055746;28;20202;-68
2021/12/05 03:46:29;;;;;;;0.88;0.70;;;22.00;47.10;;;;;;5055306;28;20618;-67
2021/12/05 03:49:01;;;;;;;1.38;0.80;;;22.10;47.20;;;;;;5055554;28;20186;-67
2021/12/05 03:51:31;;;;;;;0.90;0.70;;;22.10;47.10;;;;;;5055715;28;20188;-67
2021/12/05 03:53:58;;;;;;;1.05;0.95;;;22.00;47.10;;;;;;5055688;28;20189;-66
2021/12/05 03:56:24;;;;;;;1.20;0.85;;;22.00;47.10;;;;;;5055298;28;20213;-66
2021/12/05 03:58:53;;;;;;;1.17;0.88;;;22.00;47.10;;;;;;5072252;28;20188;-67
2021/12/05 04:01:21;;;;;;;1.05;0.82;;;22.10;47.20;;;;;;5055709;28;20530;-67
2021/12/05 04:03:48;;;;;;;1.58;1.00;;;22.10;47.20;;;;;;5072040;28;20189;-67
2021/12/05 04:06:19;;;;;;;1.17;0.65;;;22.10;47.20;;;;;;5055557;28;20209;-66
2021/12/05 04:08:46;;;;;;;0.98;0.73;;;22.10;47.20;;;;;;5055016;28;20290;-67
2021/12/05 04:11:24;;;;;;;1.13;0.90;;;22.10;47.20;;;;;;5071923;28;20189;-67
2021/12/05 04:13:52;;;;;;;1.40;0.90;;;22.00;47.00;;;;;;5055600;28;20182;-66
2021/12/05 04:16:18;;;;;;;0.93;0.70;;;22.10;47.00;;;;;;5055316;28;20210;-66
2021/12/05 04:18:47;;;;;;;0.70;0.70;;;22.10;47.00;;;;;;5055125;28;20205;-67
2021/12/05 04:21:17;;;;;;;1.45;1.23;;;22.00;46.90;;;;;;5071883;28;20211;-67
2021/12/05 04:23:46;;;;;;;0.85;0.80;;;22.00;47.00;;;;;;5055324;28;20230;-66
2021/12/05 04:26:16;;;;;;;0.93;0.90;;;22.00;46.90;;;;;;5055032;28;20209;-66
2021/12/05 04:28:46;;;;;;;2.30;1.02;;;22.00;47.00;;;;;;5094516;22;20237;-69
2021/12/05 04:31:14;;;;;;;0.73;0.73;;;22.00;47.00;;;;;;5073985;28;20275;-69
2021/12/05 04:33:40;;;;;;;1.00;0.73;;;22.00;47.00;;;;;;5057551;28;20568;-69
2021/12/05 04:36:08;;;;;;;1.67;0.93;;;22.00;47.00;;;;;;5073882;28;20201;-69
2021/12/05 04:38:34;;;;;;;1.38;0.70;;;22.00;47.00;;;;;;5074018;28;20201;-68
2021/12/05 04:41:02;;;;;;;0.70;0.70;;;22.00;47.10;;;;;;5074408;28;20180;-69
2021/12/05 04:43:39;;;;;;;0.70;0.70;;;22.00;47.00;;;;;;5057594;28;20181;-69
2021/12/05 04:46:17;;;;;;;0.85;0.70;;;22.00;47.00;;;;;;5055305;28;20261;-69
2021/12/05 04:48:51;;;;;;;1.23;0.82;;;22.10;47.10;;;;;;5057319;28;20606;-69
2021/12/05 04:51:25;;;;;;;0.80;0.80;;;22.00;46.90;;;;;;5074011;28;20209;-70
2021/12/05 04:53:53;;;;;;;0.80;0.80;;;22.10;46.90;;;;;;5090690;28;20184;-70
2021/12/05 04:56:20;;;;;;;0.77;0.70;;;22.00;46.70;;;;;;5091049;28;20250;-69
2021/12/05 04:58:46;;;;;;;0.88;0.68;;;22.00;46.90;;;;;;5090678;28;20211;-70
2021/12/05 05:01:20;;;;;;;0.93;0.77;;;22.00;46.90;;;;;;5074927;28;20177;-69
2021/12/05 05:03:46;;;;;;;0.82;0.82;;;22.00;47.00;;;;;;5073865;28;20192;-69
2021/12/05 05:06:17;;;;;;;0.82;0.82;;;22.00;46.90;;;;;;5056818;28;20241;-71
2021/12/05 05:08:50;;;;;;;1.20;0.60;;;22.00;46.90;;;;;;5073369;28;20220;-69
2021/12/05 05:11:20;;;;;;;0.70;0.70;;;22.00;47.00;;;;;;5056681;28;20192;-68
2021/12/05 05:13:47;;;;;;;0.90;0.90;;;22.00;47.60;;;;;;5073765;28;20579;-69
2021/12/05 05:16:16;;;;;;;1.25;0.60;;;22.10;47.10;;;;;;5090577;28;20307;-69
2021/12/05 05:19:00;;;;;;;1.08;0.85;;;22.00;47.00;;;;;;5073537;28;20216;-69
2021/12/05 05:22:24;;;;;;;1.20;0.80;;;22.00;47.00;;;;;;5073935;28;20185;-69
2021/12/05 05:30:33;;;;;;;0.60;0.40;;;22.00;46.70;;;;;;5073352;28;20271;-69
2021/12/05 05:44:30;;;;;;;1.13;0.70;;;22.00;46.80;;;;;;5091307;28;20274;-69
2021/12/05 05:46:14;;;;;;;0.60;0.60;;;22.00;46.80;;;;;;5061212;28;20200;-69
2021/12/05 05:48:44;;;;;;;1.25;0.80;;;22.10;47.00;;;;;;5077996;28;20254;-69
2021/12/05 05:51:11;;;;;;;0.68;0.60;;;22.10;47.00;;;;;;5078196;28;20181;-69
2021/12/05 05:53:37;;;;;;;1.35;1.00;;;22.10;47.00;;;;;;5078167;28;20177;-69
2021/12/05 05:56:13;;;;;;;0.60;0.60;;;22.00;46.90;;;;;;5095021;28;20216;-69
2021/12/05 05:58:51;;;;;;;1.05;0.93;;;22.00;46.90;;;;;;5095880;28;20208;-69
2021/12/05 06:01:21;;;;;;;0.77;0.73;;;22.00;46.90;;;;;;5078107;28;20561;-69
2021/12/05 06:03:48;;;;;;;1.30;0.90;;;22.00;46.80;;;;;;5096034;28;20251;-69
2021/12/05 06:06:16;;;;;;;0.68;0.68;;;22.00;46.70;;;;;;5094768;28;20181;-69
2021/12/05 06:08:44;;;;;;;0.95;0.50;;;22.00;46.70;;;;;;5077660;28;20216;-69
2021/12/05 06:11:14;;;;;;;1.58;0.93;;;22.00;46.70;;;;;;5094396;28;20230;-69
2021/12/05 06:13:41;;;;;;;0.73;0.73;;;22.00;46.70;;;;;;5067574;28;20193;-69
2021/12/05 06:16:09;;;;;;;0.88;0.70;;;22.00;46.60;;;;;;5057733;28;20304;-69
2021/12/05 06:18:36;;;;;;;0.80;0.80;;;22.00;46.70;;;;;;5057091;28;20212;-71
2021/12/05 06:21:04;;;;;;;0.85;0.60;;;22.00;46.90;;;;;;5074100;28;20209;-71
2021/12/05 06:23:30;;;;;;;0.77;0.70;;;22.00;46.80;;;;;;5057698;28;20192;-71
2021/12/05 06:25:56;;;;;;;0.90;0.73;;;22.00;46.90;;;;;;5041098;28;20624;-71
2021/12/05 06:28:35;;;;;;;0.63;0.60;;;22.00;46.90;;;;;;5073633;28;20224;-71
2021/12/05 06:39:29;;;;;;;1.02;0.90;;;22.00;46.70;;;;;;5056904;28;20209;-71
2021/12/05 06:47:31;;;;;;;0.70;0.70;;;22.00;46.90;;;;;;5056815;28;20209;-69
2021/12/05 06:49:57;;;;;;;0.70;0.70;;;22.00;46.90;;;;;;5056886;28;20196;-69
2021/12/05 06:52:24;;;;;;;0.82;0.70;;;22.00;46.90;;;;;;5056842;28;20906;-69
2021/12/05 06:54:50;;;;;;;1.27;0.80;;;22.00;46.90;;;;;;5045658;28;20201;-69
2021/12/05 06:57:18;;;;;;;0.93;0.80;;;22.00;46.70;;;;;;5066503;28;20239;-69
2021/12/05 06:59:45;;;;;;;0.70;0.70;;;22.00;46.70;;;;;;5039185;28;20213;-69
2021/12/05 07:02:15;;;;;;;0.70;0.60;;;22.00;46.70;;;;;;5073469;28;20181;-69
2021/12/05 07:07:14;;;;;;;1.65;1.00;;;22.00;46.50;;;;;;5057001;28;20212;-71
2021/12/05 07:09:41;;;;;;;0.80;0.80;;;22.00;46.50;;;;;;5056547;28;20181;-71
2021/12/05 07:14:58;;;;;;;0.65;0.65;;;22.00;46.60;;;;;;5056306;28;20565;-71
2021/12/05 07:20:36;;;;;;;1.40;1.05;;;22.00;46.80;;;;;;5061551;28;20185;-71
2021/12/05 07:23:36;;;;;;;1.52;1.13;;;22.00;46.80;;;;;;5048248;28;20185;-70
2021/12/05 07:26:25;;;;;;;0.85;0.75;;;22.00;46.70;;;;;;5060083;28;20649;-71
2021/12/05 07:42:38;;;;;;;0.95;0.88;;;22.00;46.50;;;;;;5075894;28;20209;-71
2021/12/05 07:45:06;;;;;;;0.80;0.80;;;22.00;46.60;;;;;;5091923;28;20185;-71
2021/12/05 07:47:33;;;;;;;0.80;0.80;;;22.00;47.30;;;;;;5080771;28;20201;-71
2021/12/05 07:50:09;;;;;;;1.02;1.00;;;22.00;46.70;;;;;;5068735;28;20189;-71
2021/12/05 07:52:40;;;;;;;1.05;0.80;;;22.00;46.70;;;;;;5075480;28;20206;-71
2021/12/05 07:55:32;;;;;;;1.20;1.00;;;22.00;46.70;;;;;;5093466;28;20259;-71
2021/12/05 07:58:12;;;;;;;0.80;0.80;;;22.00;46.70;;;;;;5062156;28;20216;-69
2021/12/05 08:00:53;;;;;;;1.10;1.00;;;22.00;46.60;;;;;;5075979;28;20181;-69
2021/12/05 08:16:50;;;;;;;1.50;1.40;;;22.00;46.60;;;;;;5071758;28;20201;-69
2021/12/05 08:19:18;;;;;;;1.40;1.30;;;22.00;46.50;;;;;;5055095;28;20564;-69
2021/12/05 08:21:46;;;;;;;1.42;1.33;;;22.00;46.50;;;;;;5081551;28;20189;-69
2021/12/05 08:24:12;;;;;;;1.25;1.15;;;22.00;46.50;;;;;;5058501;28;20173;-69
2021/12/05 08:26:39;;;;;;;1.23;1.10;;;22.00;46.50;;;;;;5074975;28;20186;-68
2021/12/05 08:29:11;;;;;;;1.20;1.13;;;22.00;46.50;;;;;;5054871;28;20209;-68
2021/12/05 09:39:26;;;;;;;1.45;1.17;;;22.10;46.80;;;;;;5092022;28;20204;-69
2021/12/05 10:38:46;;;;;;;1.85;1.02;;;22.10;46.70;;;;;;5065743;28;20186;-66
2021/12/05 10:42:00;;;;;;;1.40;1.00;;;22.10;46.80;;;;;;5072684;28;20590;-66
2021/12/05 10:44:16;;;;;;;2.03;1.17;;;22.10;46.80;;;;;;5081554;28;20270;-66
2021/12/05 10:46:49;;;;;;;1.73;1.10;;;22.10;46.60;;;;;;5074140;28;20186;-66
2021/12/05 10:49:17;;;;;;;1.33;1.08;;;22.10;46.60;;;;;;5072545;28;20563;-67
2021/12/05 10:51:52;;;;;;;1.23;1.10;;;22.10;46.60;;;;;;5092370;28;20692;-66
2021/12/05 10:54:22;;;;;;;1.42;1.25;;;22.10;46.80;;;;;;5090468;28;20196;-67
2021/12/05 10:56:56;;;;;;;2.10;1.40;;;22.10;46.80;;;;;;5070264;28;20290;-67
2021/12/05 10:59:31;;;;;;;1.77;1.10;;;22.10;46.80;;;;;;5037159;28;20240;-67
2021/12/05 11:02:03;;;;;;;3.00;1.15;;;22.10;46.80;;;;;;5053851;28;20197;-68
2021/12/05 11:04:32;;;;;;;1.10;1.00;;;22.10;46.80;;;;;;5053276;28;20179;-66
2021/12/05 11:07:07;;;;;;;1.35;1.25;;;22.10;46.80;;;;;;5067919;28;20570;-67
2021/12/05 11:09:37;;;;;;;1.80;1.27;;;22.10;46.80;;;;;;5094724;28;20218;-67
2021/12/05 11:12:11;;;;;;;1.50;1.00;;;22.20;46.80;;;;;;5093296;28;20213;-66
2021/12/05 11:15:07;;;;;;;1.65;1.30;;;22.10;46.80;;;;;;5075707;28;20630;-67
2021/12/05 11:17:39;;;;;;;2.15;1.10;;;22.10;46.80;;;;;;5073177;28;20221;-66
2021/12/05 11:20:21;;;;;;;1.17;0.98;;;22.10;46.80;;;;;;5081051;28;20185;-67
2021/12/05 11:22:51;;;;;;;1.40;1.30;;;22.20;46.90;;;;;;5077345;28;20649;-66
2021/12/05 11:25:24;;;;;;;1.23;1.02;;;22.10;46.80;;;;;;5089944;28;20208;-67
2021/12/05 11:27:53;;;;;;;1.75;1.40;;;22.20;46.90;;;;;;5087966;28;20174;-68
2021/12/05 11:30:32;;;;;;;1.50;1.25;;;22.20;46.90;;;;;;5072329;28;20196;-67
2021/12/05 11:33:18;;;;;;;1.80;1.30;;;22.20;46.90;;;;;;5073004;28;20303;-68
2021/12/05 11:36:01;;;;;;;3.10;1.30;;;22.10;46.80;;;;;;5067836;28;20180;-67
2021/12/05 11:38:33;;;;;;;1.95;1.10;;;22.10;46.80;;;;;;5056223;28;20641;-67
2021/12/05 11:41:12;;;;;;;1.45;1.20;;;22.20;46.80;;;;;;5066518;28;20257;-69
2021/12/05 11:43:59;;;;;;;3.22;1.20;;;22.10;46.80;;;;;;5078485;28;20323;-68
2021/12/05 11:46:35;;;;;;;1.13;1.02;;;22.10;46.90;;;;;;5092820;28;20191;-68
2021/12/05 11:49:08;;;;;;;1.63;1.23;;;22.20;46.90;;;;;;5092745;28;20177;-68
2021/12/05 11:51:57;;;;;;;1.20;1.10;;;22.20;46.80;;;;;;5092581;28;20292;-67
2021/12/05 11:54:30;;;;;;;2.83;0.90;;;22.10;46.70;;;;;;5091371;28;20203;-67
2021/12/05 11:56:57;;;;;;;1.92;1.00;;;22.10;46.70;;;;;;5072388;28;20300;-68
2021/12/05 11:59:35;;;;;;;1.52;1.23;;;22.20;46.80;;;;;;5062961;28;20225;-67
2021/12/05 12:02:15;;;;;;;1.38;1.25;;;22.20;46.80;;;;;;5072208;28;20221;-67
2021/12/05 12:05:04;;;;;;;1.55;1.20;;;22.20;46.90;;;;;;5067298;28;20244;-67
2021/12/05 12:07:32;;;;;;;1.90;1.45;;;22.20;46.80;;;;;;5077527;28;20182;-67
2021/12/05 12:10:10;;;;;;;1.20;1.10;;;22.20;46.90;;;;;;5052406;28;20679;-67
2021/12/05 12:12:39;;;;;;;2.00;1.27;;;22.20;46.80;;;;;;5039206;28;20259;-67
2021/12/05 12:15:06;;;;;;;1.20;1.10;;;22.20;46.90;;;;;;5047398;28;20189;-68
2021/12/05 12:17:32;;;;;;;1.30;1.10;;;22.20;46.90;;;;;;5051956;28;20218;-67
2021/12/05 12:19:58;;;;;;;1.83;1.20;;;22.20;46.80;;;;;;5045088;28;20182;-68
2021/12/05 12:22:27;;;;;;;1.70;1.33;;;22.20;46.90;;;;;;5088752;28;20306;-67
2021/12/05 12:25:10;;;;;;;1.98;1.10;;;22.20;46.80;;;;;;5072304;28;20283;-68
2021/12/05 12:27:37;;;;;;;1.50;1.30;;;22.20;46.80;;;;;;5055336;28;20178;-67
2021/12/05 12:30:08;;;;;;;2.17;1.05;;;22.20;46.90;;;;;;5071734;28;20188;-67
2021/12/05 12:32:44;;;;;;;1.67;1.33;;;22.10;46.90;;;;;;5081517;28;20186;-68
2021/12/05 12:35:19;;;;;;;1.58;1.20;;;22.20;46.90;;;;;;5051781;28;20193;-67
2021/12/05 12:38:07;;;;;;;0.90;0.90;;;22.20;46.90;;;;;;5052857;28;20293;-68
2021/12/05 12:40:49;;;;;;;1.08;0.90;;;22.20;46.90;;;;;;5068799;28;20216;-67
2021/12/05 12:43:39;;;;;;;1.27;1.17;;;22.20;46.90;;;;;;5072438;28;20210;-67
2021/12/05 12:46:21;;;;;;;1.45;1.27;;;22.20;46.80;;;;;;5057422;28;20273;-69
2021/12/05 12:48:58;;;;;;;1.27;1.10;;;22.20;46.90;;;;;;5065222;28;20246;-67
2021/12/05 12:51:46;;;;;;;1.00;1.00;;;22.20;46.90;;;;;;5051371;28;20299;-67
2021/12/05 12:54:29;;;;;;;1.52;1.10;;;22.20;46.90;;;;;;5051459;28;20620;-68
2021/12/05 12:57:22;;;;;;;2.30;1.30;;;22.20;46.90;;;;;;5051637;28;20666;-68
2021/12/05 13:00:04;;;;;;;1.67;1.40;;;22.20;46.90;;;;;;5059650;28;20208;-68
2021/12/05 13:02:59;;;;;;;1.23;1.02;;;22.20;46.90;;;;;;5069796;28;20189;-67
2021/12/05 13:11:21;;;;;;;1.70;1.30;;;22.20;46.90;;;;;;5052282;28;20221;-67
2021/12/05 13:14:06;;;;;;;1.35;1.25;;;22.10;46.80;;;;;;5067612;28;20538;-67
2021/12/05 13:16:36;;;;;;;1.17;1.00;;;22.20;46.80;;;;;;5051308;28;20206;-68
2021/12/05 13:19:19;;;;;;;1.83;1.20;;;22.10;46.80;;;;;;5050970;28;20604;-67
2021/12/05 13:21:49;;;;;;;3.08;1.20;;;22.20;47.00;;;;;;5051058;28;20210;-68
2021/12/05 13:24:16;;;;;;;1.40;1.20;;;22.10;46.90;;;;;;5051047;28;20186;-67
2021/12/05 13:26:43;;;;;;;1.85;1.20;;;22.20;46.90;;;;;;5052302;28;20261;-67
2021/12/05 13:29:28;;;;;;;1.30;1.20;;;22.20;46.90;;;;;;5067500;28;20243;-67
2021/12/05 13:32:17;;;;;;;1.30;1.20;;;22.10;46.90;;;;;;5056966;28;20273;-69
2021/12/05 13:34:47;;;;;;;2.58;1.30;;;22.20;46.90;;;;;;5050778;28;20182;-68
2021/12/05 13:37:13;;;;;;;1.42;1.20;;;22.10;46.80;;;;;;5034398;28;20210;-67
2021/12/05 13:39:49;;;;;;;1.83;1.23;;;22.20;46.90;;;;;;5067335;28;20189;-68
2021/12/05 13:42:45;;;;;;;1.80;1.17;;;22.20;46.90;;;;;;5050741;28;20301;-67
2021/12/05 13:45:28;;;;;;;1.40;1.15;;;22.20;46.90;;;;;;5050776;28;20557;-68
2021/12/05 13:47:53;;;;;;;2.70;1.08;;;22.10;46.90;;;;;;5050546;28;20189;-68
2021/12/05 13:50:22;;;;;;;1.33;1.20;;;22.10;46.80;;;;;;5034200;28;20195;-68
2021/12/05 13:52:56;;;;;;;1.88;1.33;;;22.20;46.90;;;;;;5052142;28;20190;-68
2021/12/05 13:55:42;;;;;;;1.40;1.30;;;22.10;46.80;;;;;;5066790;28;20358;-68
2021/12/05 13:58:21;;;;;;;1.52;1.42;;;22.20;46.80;;;;;;5063841;28;20213;-69
2021/12/05 14:01:19;;;;;;;1.38;1.25;;;22.20;46.90;;;;;;5064548;28;20203;-68
2021/12/05 14:04:10;;;;;;;1.48;1.38;;;22.10;46.90;;;;;;5051025;28;20265;-69
2021/12/05 14:06:57;;;;;;;2.40;1.55;;;22.10;47.20;;;;;;5039540;28;20178;-69
2021/12/05 14:09:42;;;;;;;2.22;1.60;;;22.20;47.00;;;;;;5070769;28;20205;-68
2021/12/05 14:12:15;;;;;;;2.78;1.60;;;22.10;46.90;;;;;;5054566;28;20202;-68
2021/12/05 14:14:47;;;;;;;2.38;1.40;;;22.20;46.90;;;;;;5037729;28;20191;-69
2021/12/05 14:17:28;;;;;;;1.52;1.42;;;22.10;47.40;;;;;;5055414;28;20696;-68
2021/12/05 14:19:58;;;;;;;1.25;1.15;;;22.20;46.90;;;;;;5055409;28;20178;-68
2021/12/05 14:22:29;;;;;;;1.50;1.40;;;22.20;47.00;;;;;;5037905;28;20207;-69
2021/12/05 14:24:59;;;;;;;2.40;1.40;;;22.20;47.00;;;;;;5070699;28;20194;-68
2021/12/05 14:27:30;;;;;;;2.20;1.30;;;22.10;46.90;;;;;;5053983;28;20191;-68
2021/12/05 14:29:57;;;;;;;1.40;1.30;;;22.10;47.00;;;;;;5049317;28;20206;-68
2021/12/05 14:32:30;;;;;;;2.17;1.48;;;22.20;47.00;;;;;;5067709;28;20230;-68
2021/12/05 14:35:02;;;;;;;1.50;1.35;;;22.10;47.00;;;;;;5071976;28;20230;-69
2021/12/05 14:37:33;;;;;;;1.88;1.48;;;22.10;46.90;;;;;;5069042;28;20681;-68
2021/12/05 14:40:05;;;;;;;1.75;1.25;;;22.20;47.00;;;;;;5035892;28;20221;-68
2021/12/05 14:42:34;;;;;;;1.40;1.20;;;22.10;46.90;;;;;;5069424;28;20251;-68
2021/12/05 14:45:14;;;;;;;1.58;1.27;;;22.10;46.90;;;;;;5035704;28;20197;-68
2021/12/05 14:47:43;;;;;;;1.50;1.20;;;22.10;46.90;;;;;;5054326;28;20244;-67
2021/12/05 14:50:21;;;;;;;1.33;1.20;;;22.10;46.90;;;;;;5059845;28;20201;-68
2021/12/05 14:52:51;;;;;;;2.05;1.52;;;22.10;46.90;;;;;;5050097;28;20196;-68
2021/12/05 14:55:20;;;;;;;2.03;1.30;;;22.10;47.00;;;;;;5055989;28;20185;-67
2021/12/05 14:57:51;;;;;;;2.05;1.52;;;22.10;47.00;;;;;;5072098;28;20282;-68
2021/12/05 15:00:32;;;;;;;1.48;1.13;;;22.10;47.00;;;;;;5063739;28;20236;-69
2021/12/05 15:03:15;;;;;;;2.17;1.50;;;22.20;47.00;;;;;;5089126;28;20701;-68
2021/12/05 15:05:55;;;;;;;1.83;1.13;;;22.10;46.90;;;;;;5055930;28;20177;-69
2021/12/05 15:08:25;;;;;;;1.58;1.30;;;22.10;46.90;;;;;;5085088;28;20187;-69
2021/12/05 15:10:57;;;;;;;1.50;1.30;;;22.20;47.00;;;;;;5109883;28;20219;-68
2021/12/05 15:13:23;;;;;;;1.33;1.20;;;22.10;46.80;;;;;;5092369;28;20189;-69
2021/12/05 15:15:49;;;;;;;1.58;1.20;;;22.10;47.00;;;;;;5075199;28;20212;-69
2021/12/05 15:18:24;;;;;;;2.33;1.30;;;22.10;47.00;;;;;;5075076;28;20188;-69
2021/12/05 15:20:51;;;;;;;1.92;1.27;;;22.10;46.90;;;;;;5091642;28;20207;-69
2021/12/05 15:23:17;;;;;;;1.50;1.23;;;22.10;47.00;;;;;;5109240;28;20275;-69
2021/12/05 15:25:43;;;;;;;1.45;1.15;;;22.10;47.00;;;;;;5092645;28;20338;-68
2021/12/05 15:28:13;;;;;;;2.28;1.30;;;22.10;46.90;;;;;;5081729;28;20285;-69
2021/12/05 15:30:43;;;;;;;1.58;1.10;;;22.10;47.00;;;;;;5035146;28;1047199;-68
2021/12/05 15:33:14;;;;;;;1.38;0.90;;;22.10;47.00;;;;;;5074463;28;20318;-68
2021/12/05 15:35:40;;;;;;;1.15;1.05;;;22.10;46.90;;;;;;5089736;28;20555;-68
2021/12/05 15:38:12;;;;;;;1.70;1.40;;;22.10;46.90;;;;;;5072222;28;20273;-68
2021/12/05 15:40:44;;;;;;;1.75;1.30;;;22.10;46.90;;;;;;5072654;28;20252;-68
2021/12/05 15:43:15;;;;;;;1.00;0.90;;;22.10;46.80;;;;;;5089492;28;20189;-68
2021/12/05 15:45:46;;;;;;;1.33;1.23;;;22.10;46.90;;;;;;5089164;28;20190;-68
2021/12/05 15:48:35;;;;;;;1.58;1.30;;;22.10;46.80;;;;;;5055561;28;20169;-68
2021/12/05 15:51:06;;;;;;;1.77;1.30;;;22.00;46.80;;;;;;5072251;28;20209;-68
2021/12/05 15:53:35;;;;;;;2.15;1.27;;;22.10;47.00;;;;;;5072247;28;20186;-68
2021/12/05 15:56:07;;;;;;;1.30;1.20;;;22.00;46.90;;;;;;5055357;28;20261;-69
2021/12/05 15:58:47;;;;;;;1.00;1.00;;;22.00;46.90;;;;;;5089285;28;20231;-68
2021/12/05 16:01:21;;;;;;;2.78;1.42;;;22.10;47.00;;;;;;5047167;28;20229;-68
2021/12/05 16:03:56;;;;;;;1.40;1.10;;;22.10;47.00;;;;;;5088727;28;20203;-68
2021/12/05 16:06:40;;;;;;;1.15;1.05;;;22.10;47.00;;;;;;5072588;28;20633;-68
2021/12/05 16:09:17;;;;;;;1.52;1.25;;;22.10;46.90;;;;;;5071476;28;20234;-68
2021/12/05 16:11:45;;;;;;;1.50;1.40;;;22.00;46.80;;;;;;5052060;28;20202;-68
2021/12/05 16:14:11;;;;;;;1.17;1.08;;;22.10;46.90;;;;;;5052185;28;20265;-68
2021/12/05 16:16:37;;;;;;;1.98;1.35;;;22.00;46.90;;;;;;5068627;28;20211;-68
2021/12/05 16:19:09;;;;;;;2.13;1.20;;;22.10;47.00;;;;;;5068488;28;20178;-68
2021/12/05 16:21:38;;;;;;;2.35;1.50;;;22.10;47.00;;;;;;5053226;28;20206;-68
2021/12/05 16:24:08;;;;;;;1.30;1.20;;;22.10;47.00;;;;;;5035326;28;20210;-68
2021/12/05 16:26:35;;;;;;;2.25;1.42;;;22.00;46.90;;;;;;5068397;28;20190;-68
2021/12/05 16:29:06;;;;;;;2.80;1.73;;;22.10;47.00;;;;;;5042798;28;20193;-69
2021/12/05 16:31:50;;;;;;;1.40;1.30;;;22.10;47.00;;;;;;5063485;28;20229;-68
2021/12/05 16:34:22;;;;;;;2.47;1.45;;;22.00;46.90;;;;;;5072066;28;20193;-68
2021/12/05 16:36:59;;;;;;;1.80;1.35;;;22.10;46.90;;;;;;5071864;28;20677;-68
2021/12/05 16:39:38;;;;;;;1.35;1.20;;;22.10;46.90;;;;;;5071430;28;20645;-68
2021/12/05 16:42:17;;;;;;;1.60;1.40;;;22.00;46.80;;;;;;5071424;28;20208;-68
2021/12/05 16:44:58;;;;;;;2.25;1.67;;;22.00;46.80;;;;;;5071468;28;20182;-67
2021/12/05 16:47:31;;;;;;;2.25;1.60;;;22.00;46.90;;;;;;5066012;28;20201;-68
2021/12/05 16:50:01;;;;;;;1.92;1.33;;;22.00;47.00;;;;;;5071585;28;20216;-68
2021/12/05 16:52:36;;;;;;;2.13;1.60;;;22.00;47.00;;;;;;5054924;28;20280;-68
2021/12/05 16:55:27;;;;;;;1.58;1.30;;;22.00;47.00;;;;;;5071723;28;20181;-68
2021/12/05 17:00:30;;;;;;;1.88;1.02;;;22.00;46.90;;;;;;5054121;28;20577;-67
2021/12/05 17:03:05;;;;;;;1.77;1.45;;;22.00;46.70;;;;;;5071372;28;20181;-67
2021/12/05 17:05:43;;;;;;;2.70;1.45;;;22.00;46.80;;;;;;5054569;28;20173;-68
2021/12/05 17:08:17;;;;;;;1.65;1.20;;;22.00;47.00;;;;;;5072341;28;20170;-67
2021/12/05 17:11:04;;;;;;;2.25;1.40;;;22.00;47.00;;;;;;5072388;28;20209;-70
2021/12/05 17:13:38;;;;;;;1.75;1.50;;;22.00;47.00;;;;;;5088084;28;20186;-68
2021/12/05 17:16:29;;;;;;;2.42;1.40;;;22.00;47.00;;;;;;5054573;28;20217;-69
2021/12/05 17:19:07;;;;;;;1.50;1.33;;;22.00;47.00;;;;;;5072144;28;20176;-69
2021/12/05 17:21:38;;;;;;;3.13;1.52;;;22.00;46.80;;;;;;5071432;28;20202;-69
2021/12/05 17:24:16;;;;;;;1.85;1.48;;;22.00;46.80;;;;;;5054453;28;20199;-69
2021/12/05 17:26:47;;;;;;;2.60;1.70;;;22.00;46.90;;;;;;5072608;28;20256;-69
2021/12/05 17:29:27;;;;;;;2.58;1.52;;;22.00;47.00;;;;;;5086463;28;20706;-68
2021/12/05 17:32:06;;;;;;;1.80;1.48;;;22.00;47.00;;;;;;5049445;28;20209;-67
2021/12/05 17:34:42;;;;;;;2.10;1.70;;;22.00;47.00;;;;;;5071302;28;20184;-68
2021/12/05 17:37:18;;;;;;;1.48;1.27;;;22.00;47.00;;;;;;5061324;28;20219;-69
2021/12/05 17:39:47;;;;;;;2.25;1.77;;;22.00;47.00;;;;;;5051043;28;20551;-69
2021/12/05 17:42:23;;;;;;;2.10;1.98;;;22.00;46.90;;;;;;5051087;28;20244;-68
2021/12/05 17:44:52;;;;;;;2.70;2.20;;;22.00;46.90;;;;;;5055988;28;20171;-68
2021/12/05 17:47:20;;;;;;;3.25;2.25;;;22.00;46.80;;;;;;5054841;28;20222;-68
2021/12/05 17:49:50;;;;;;;3.13;2.08;;;22.00;46.70;;;;;;5054759;28;20218;-68
2021/12/05 17:52:18;;;;;;;2.90;1.90;;;22.00;46.90;;;;;;5055940;28;20252;-69
2021/12/05 17:55:06;;;;;;;2.00;1.80;;;22.00;47.00;;;;;;5054774;28;20281;-69
2021/12/05 17:57:44;;;;;;;2.63;1.92;;;22.00;47.10;;;;;;5056805;28;20214;-69
2021/12/05 18:02:58;;;;;;;2.75;2.55;;;22.00;47.10;;;;;;5054884;28;20184;-69
2021/12/05 18:05:48;;;;;;;3.70;2.80;;;22.00;46.80;;;;;;5055801;22;20238;-68
2021/12/05 18:08:21;;;;;;;3.88;3.22;;;22.00;46.80;;;;;;5055828;28;20178;-69
2021/12/05 18:10:54;;;;;;;4.00;2.83;;;22.00;46.70;;;;;;5040193;28;20193;-69
2021/12/05 18:13:24;;;;;;;4.68;2.58;;;22.00;46.90;;;;;;5057089;28;20177;-69
2021/12/05 18:16:03;;;;;;;3.72;3.05;;;22.00;47.00;;;;;;5056871;28;20731;-68
2021/12/05 18:18:30;;;;;;;3.10;2.85;;;22.00;46.90;;;;;;5073666;28;20562;-69
2021/12/05 18:20:59;;;;;;;4.18;3.03;;;22.00;47.00;;;;;;5040267;28;20190;-69
2021/12/05 18:23:26;;;;;;;3.20;2.90;;;22.00;47.00;;;;;;5074541;28;20182;-69
2021/12/05 18:25:53;;;;;;;4.15;2.80;;;22.00;46.90;;;;;;5074591;28;20193;-69
2021/12/05 18:28:20;;;;;;;3.05;2.75;;;22.00;46.90;;;;;;5073769;28;20182;-69
2021/12/05 18:30:47;;;;;;;3.85;3.22;;;22.00;46.90;;;;;;5039620;28;20548;-69
2021/12/05 18:33:18;;;;;;;3.60;3.25;;;22.00;46.90;;;;;;5074166;28;20190;-67
2021/12/05 18:35:44;;;;;;;3.38;3.08;;;22.00;46.80;;;;;;5055558;28;20213;-68
2021/12/05 18:38:15;;;;;;;4.03;3.35;;;22.00;46.80;;;;;;5072954;28;20213;-68